Time;durP1;ratioP1;P1;durP2;ratioP2;P2;SDS_P1;SDS_P2;PMS_P1;PMS_P2;Temp;Humidity;BMP_temperature;BMP_pressure;BME280_temperature;BME280_humidity;BME280_pressure;Samples;Min_cycle;Max_cycle;Signal;HPM_P1;HPM_P2
2022/05/29 00:02:25;;;;;;;22.63;11.90;;;;;;;17.63;100.00;94399.56;5059837;28;20197;-84
2022/05/29 00:04:55;;;;;;;22.17;11.40;;;;;;;17.54;100.00;94388.00;5057499;28;20198;-83
2022/05/29 00:07:26;;;;;;;24.37;12.00;;;;;;;17.37;100.00;94340.22;5053710;28;20197;-82
2022/05/29 00:10:01;;;;;;;21.30;11.60;;;;;;;17.47;100.00;94333.06;5057511;28;20232;-81
2022/05/29 00:12:39;;;;;;;25.73;12.93;;;;;;;17.60;100.00;94339.63;5059767;28;20674;-81
2022/05/29 00:15:13;;;;;;;22.43;11.77;;;;;;;17.66;100.00;94354.34;5059748;28;20241;-82
2022/05/29 00:17:45;;;;;;;24.20;12.17;;;;;;;17.64;100.00;94358.25;5061484;28;20208;-81
2022/05/29 00:20:17;;;;;;;27.10;11.67;;;;;;;17.58;100.00;94345.16;5062648;28;20339;-81
2022/05/29 00:22:50;;;;;;;24.83;11.33;;;;;;;17.69;100.00;94340.63;5058157;28;20332;-80
2022/05/29 00:25:25;;;;;;;21.87;11.37;;;;;;;17.83;100.00;94346.91;5058574;28;20193;-83
2022/05/29 00:27:55;;;;;;;21.67;12.07;;;;;;;17.92;100.00;94347.88;5055782;28;20232;-79
2022/05/29 00:30:25;;;;;;;27.73;11.37;;;;;;;17.95;100.00;94326.31;5055791;28;20248;-80
2022/05/29 00:32:56;;;;;;;27.47;12.07;;;;;;;17.95;100.00;94312.41;5058912;28;20292;-80
2022/05/29 00:35:28;;;;;;;23.88;11.38;;;;;;;18.01;100.00;94296.28;5060369;28;20244;-80
2022/05/29 00:38:01;;;;;;;28.37;11.03;;;;;;;18.14;100.00;94303.59;5057564;28;20205;-81
2022/05/29 00:40:42;;;;;;;19.97;10.67;;;;;;;18.20;100.00;94295.66;5057747;28;20292;-83
2022/05/29 00:43:14;;;;;;;24.80;12.13;;;;;;;18.26;100.00;94281.41;5057201;28;20285;-81
2022/05/29 00:45:53;;;;;;;20.52;11.48;;;;;;;18.15;100.00;94239.38;5066245;28;20217;-81
2022/05/29 00:48:24;;;;;;;18.90;11.23;;;;;;;18.19;100.00;94217.78;5062795;28;20655;-81
2022/05/29 00:50:58;;;;;;;25.65;11.75;;;;;;;18.20;100.00;94232.53;5061671;28;20707;-81
2022/05/29 00:53:32;;;;;;;23.40;11.32;;;;;;;18.20;100.00;94308.81;5063839;28;20209;-81
2022/05/29 00:56:11;;;;;;;23.30;11.63;;;;;;;17.93;100.00;94328.44;5062068;28;20217;-81
2022/05/29 00:58:45;;;;;;;25.60;13.47;;;;;;;17.88;100.00;94291.66;5061077;28;20209;-80
2022/05/29 01:01:17;;;;;;;26.00;13.87;;;;;;;17.87;100.00;94257.72;5062261;28;20304;-82
2022/05/29 01:03:48;;;;;;;30.27;14.17;;;;;;;17.87;100.00;94258.53;5062045;28;20213;-83
2022/05/29 01:06:20;;;;;;;29.57;14.47;;;;;;;17.85;100.00;94249.34;5063603;28;20205;-83
2022/05/29 01:08:53;;;;;;;25.40;13.43;;;;;;;17.85;100.00;94233.56;5064516;28;20212;-81
2022/05/29 01:11:34;;;;;;;29.73;13.40;;;;;;;17.90;100.00;94223.00;5063816;28;20304;-81
2022/05/29 01:14:18;;;;;;;27.83;12.33;;;;;;;17.96;100.00;94259.53;5066572;28;20196;-81
2022/05/29 01:17:04;;;;;;;33.00;12.60;;;;;;;17.99;100.00;94282.66;5062893;28;20241;-81
2022/05/29 01:20:07;;;;;;;26.90;12.77;;;;;;;17.91;100.00;94233.25;5063086;28;20205;-81
2022/05/29 01:23:20;;;;;;;25.97;13.10;;;;;;;17.98;100.00;94265.28;5063185;28;20266;-81
2022/05/29 01:26:13;;;;;;;30.60;13.10;;;;;;;17.89;100.00;94261.66;5060300;28;20201;-80
2022/05/29 01:28:57;;;;;;;28.23;13.37;;;;;;;17.88;100.00;94259.31;5054669;28;20778;-81
2022/05/29 01:31:51;;;;;;;25.73;13.13;;;;;;;17.91;100.00;94237.72;5059437;28;20305;-81
2022/05/29 01:34:38;;;;;;;21.33;11.57;;;;;;;17.94;100.00;94227.47;5063200;28;20202;-82
2022/05/29 01:37:18;;;;;;;24.03;12.73;;;;;;;17.89;100.00;94229.34;5063256;28;20209;-81
2022/05/29 01:40:02;;;;;;;23.40;11.70;;;;;;;17.93;100.00;94233.78;5061225;28;21898;-81
2022/05/29 01:42:42;;;;;;;19.17;11.27;;;;;;;17.96;100.00;94233.22;5061803;28;20193;-84
2022/05/29 01:45:28;;;;;;;23.83;11.10;;;;;;;17.98;100.00;94231.09;5066380;28;20223;-81
2022/05/29 01:48:13;;;;;;;26.73;11.50;;;;;;;17.87;100.00;94226.97;5064962;28;20220;-81
2022/05/29 01:50:54;;;;;;;22.40;11.13;;;;;;;17.96;100.00;94254.25;5062481;28;20233;-80
2022/05/29 01:53:32;;;;;;;25.20;10.60;;;;;;;17.99;100.00;94245.03;5063312;28;20282;-81
2022/05/29 01:56:09;;;;;;;20.47;10.83;;;;;;;17.85;100.00;94236.97;5060141;28;20201;-82
2022/05/29 01:58:50;;;;;;;22.97;10.30;;;;;;;17.85;100.00;94230.94;5061143;28;20660;-82
2022/05/29 02:01:29;;;;;;;23.53;10.57;;;;;;;17.87;100.00;94226.19;5062017;28;20208;-80
2022/05/29 02:04:05;;;;;;;20.00;10.27;;;;;;;17.88;100.00;94235.66;5057973;28;20590;-80
2022/05/29 02:09:35;;;;;;;21.93;10.27;;;;;;;17.92;100.00;94216.41;5062894;28;21495;-81
2022/05/29 02:12:14;;;;;;;23.63;10.60;;;;;;;17.92;100.00;94198.00;5058336;28;20228;-81
2022/05/29 02:14:52;;;;;;;16.93;10.50;;;;;;;17.99;100.00;94210.84;5062975;28;20205;-80
2022/05/29 02:17:29;;;;;;;24.37;11.13;;;;;;;18.00;100.00;94209.81;5061100;28;20213;-79
2022/05/29 02:20:05;;;;;;;21.67;10.50;;;;;;;18.02;100.00;94207.69;5061125;28;20682;-80
2022/05/29 02:22:43;;;;;;;22.83;10.23;;;;;;;18.01;100.00;94193.72;5058274;28;20300;-79
2022/05/29 02:25:21;;;;;;;19.93;11.17;;;;;;;18.05;100.00;94194.75;5063310;28;21572;-80
2022/05/29 02:27:58;;;;;;;24.17;11.07;;;;;;;17.88;100.00;94164.66;5065814;28;20284;-80
2022/05/29 02:30:38;;;;;;;22.83;11.87;;;;;;;17.93;100.00;94190.91;5063398;28;20315;-80
2022/05/29 02:33:19;;;;;;;18.70;9.97;;;;;;;17.93;100.00;94186.44;5062668;28;20201;-79
2022/05/29 02:35:57;;;;;;;18.43;9.10;;;;;;;17.92;100.00;94192.75;5061231;28;20292;-79
2022/05/29 02:38:41;;;;;;;16.17;7.90;;;;;;;17.85;100.00;94181.78;5060634;28;20885;-79
2022/05/29 02:41:21;;;;;;;19.47;7.83;;;;;;;17.84;100.00;94180.19;5061739;28;20369;-81
2022/05/29 02:43:55;;;;;;;17.20;7.63;;;;;;;17.81;100.00;94182.56;5062706;28;20233;-80
2022/05/29 02:46:44;;;;;;;16.93;8.07;;;;;;;17.80;100.00;94189.69;5058862;28;20281;-81
2022/05/29 02:49:28;;;;;;;17.93;7.40;;;;;;;17.74;100.00;94166.34;5057479;28;20569;-81
2022/05/29 02:52:05;;;;;;;15.43;6.75;;;;;;;17.69;100.00;94164.53;5055483;28;20225;-81
2022/05/29 02:54:37;;;;;;;11.77;6.57;;;;;;;17.70;100.00;94170.56;5057183;28;20201;-81
2022/05/29 02:57:16;;;;;;;13.43;6.60;;;;;;;17.67;100.00;94164.00;5060985;28;20676;-81
2022/05/29 02:59:56;;;;;;;15.33;6.57;;;;;;;17.57;100.00;94159.59;5059952;28;20210;-80
2022/05/29 03:02:40;;;;;;;16.43;6.20;;;;;;;17.53;100.00;94152.53;5058841;28;20299;-79
2022/05/29 03:05:25;;;;;;;15.13;6.37;;;;;;;17.45;100.00;94153.91;5060236;28;20202;-79
2022/05/29 03:08:17;;;;;;;18.50;6.70;;;;;;;17.46;100.00;94137.06;5058985;28;20328;-79
2022/05/29 03:10:56;;;;;;;17.60;6.80;;;;;;;17.48;100.00;94137.59;5059909;28;20267;-79
2022/05/29 03:13:40;;;;;;;12.53;6.03;;;;;;;17.47;100.00;94130.75;5060523;28;20271;-79
2022/05/29 03:16:21;;;;;;;15.27;6.50;;;;;;;17.53;100.00;94129.66;5060825;28;20292;-80
2022/05/29 03:19:01;;;;;;;14.87;5.80;;;;;;;17.62;100.00;94135.16;5063552;28;20731;-80
2022/05/29 03:21:45;;;;;;;10.73;6.07;;;;;;;17.61;100.00;94123.06;5062198;28;20839;-80
2022/05/29 03:24:28;;;;;;;18.47;6.50;;;;;;;17.58;100.00;94121.75;5062199;28;21276;-79
2022/05/29 03:27:08;;;;;;;21.43;8.00;;;;;;;17.52;100.00;94127.28;5062141;28;20655;-79
2022/05/29 03:29:43;;;;;;;20.67;8.60;;;;;;;17.46;100.00;94131.03;5060290;28;20208;-79
2022/05/29 03:32:21;;;;;;;17.47;8.30;;;;;;;17.47;100.00;94129.97;5060382;28;20264;-81
2022/05/29 03:34:52;;;;;;;18.20;8.83;;;;;;;17.53;100.00;94126.25;5062632;28;20276;-84
2022/05/29 03:37:26;;;;;;;20.10;8.70;;;;;;;17.48;100.00;94110.53;5060413;28;20217;-80
2022/05/29 03:39:57;;;;;;;26.53;8.90;;;;;;;17.55;100.00;94118.88;5058121;28;20647;-80
2022/05/29 03:42:31;;;;;;;18.43;8.43;;;;;;;17.56;100.00;94115.22;5059785;28;20214;-80
2022/05/29 03:45:10;;;;;;;23.40;8.87;;;;;;;17.58;100.00;94119.13;5061764;28;20265;-81
2022/05/29 03:47:48;;;;;;;18.63;8.47;;;;;;;17.54;100.00;94119.97;5060232;28;20299;-81
2022/05/29 03:50:24;;;;;;;15.70;8.47;;;;;;;17.56;100.00;94115.22;5061261;28;20208;-79
2022/05/29 03:53:00;;;;;;;23.27;8.87;;;;;;;17.53;100.00;94113.91;5063872;28;20290;-79
2022/05/29 03:55:33;;;;;;;18.00;8.40;;;;;;;17.56;100.00;94123.09;5063533;28;20204;-80
2022/05/29 03:58:09;;;;;;;19.10;8.20;;;;;;;17.54;100.00;94109.47;5058581;28;20672;-80
2022/05/29 04:00:44;;;;;;;16.67;7.73;;;;;;;17.46;100.00;94110.03;5059520;28;20271;-79
2022/05/29 04:03:19;;;;;;;14.20;7.57;;;;;;;17.48;100.00;94103.44;5059902;28;20235;-80
2022/05/29 04:05:53;;;;;;;16.63;7.43;;;;;;;17.44;100.00;94106.84;5061372;28;20232;-79
2022/05/29 04:14:03;;;;;;;19.03;7.70;;;;;;;17.28;100.00;94108.03;5056220;28;20238;-81
2022/05/29 04:16:35;;;;;;;19.00;7.17;;;;;;;17.23;100.00;94094.94;5055420;28;20717;-79
2022/05/29 04:19:08;;;;;;;14.40;8.00;;;;;;;17.34;100.00;94107.72;5061108;28;20215;-79
2022/05/29 04:21:43;;;;;;;18.27;7.50;;;;;;;17.40;100.00;94108.47;5064150;28;20197;-81
2022/05/29 04:24:23;;;;;;;21.10;7.37;;;;;;;17.48;100.00;94106.06;5065058;28;20561;-79
2022/05/29 04:26:55;;;;;;;18.17;8.37;;;;;;;17.57;100.00;94114.16;5067715;28;20606;-82
2022/05/29 04:29:27;;;;;;;21.37;8.53;;;;;;;17.65;100.00;94110.94;5066107;28;20215;-81
2022/05/29 04:34:55;;;;;;;20.13;7.90;;;;;;;17.84;100.00;94117.09;5064109;28;20298;-82
2022/05/29 04:37:27;;;;;;;20.00;7.70;;;;;;;17.82;100.00;94106.06;5063777;28;20292;-81
2022/05/29 04:40:06;;;;;;;15.87;7.23;;;;;;;17.99;100.00;94116.97;5060501;28;20297;-80
2022/05/29 04:42:43;;;;;;;17.77;7.70;;;;;;;17.93;100.00;94118.06;5061785;28;20197;-80
2022/05/29 04:45:18;;;;;;;15.00;7.20;;;;;;;18.04;100.00;94119.53;5063422;28;20201;-81
2022/05/29 04:47:53;;;;;;;15.37;7.07;;;;;;;18.13;100.00;94135.50;5061135;28;20196;-83
2022/05/29 04:50:25;;;;;;;14.30;8.03;;;;;;;18.19;100.00;94137.03;5060518;28;20212;-80
2022/05/29 04:52:56;;;;;;;16.23;7.10;;;;;;;18.15;100.00;94128.16;5060947;28;20230;-80
2022/05/29 04:55:31;;;;;;;13.77;6.60;;;;;;;18.03;100.00;94133.78;5062811;28;20220;-80
2022/05/29 04:58:02;;;;;;;13.17;6.30;;;;;;;18.17;100.00;94136.53;5062513;28;20296;-81
2022/05/29 05:00:36;;;;;;;12.73;6.13;;;;;;;18.25;100.00;94119.34;5062893;28;20282;-76
2022/05/29 05:03:07;;;;;;;26.10;7.63;;;;;;;18.33;100.00;94119.53;5061951;28;20198;-74
2022/05/29 05:05:39;;;;;;;16.65;6.25;;;;;;;18.33;100.00;94124.00;5060283;28;20306;-73
2022/05/29 05:08:15;;;;;;;12.25;6.68;;;;;;;18.42;100.00;94123.13;5060847;28;20211;-75
2022/05/29 05:10:55;;;;;;;12.40;6.10;;;;;;;18.48;100.00;94127.31;5061471;28;20219;-73
2022/05/29 05:13:24;;;;;;;17.25;7.03;;;;;;;18.55;100.00;94122.50;5059435;28;20220;-73
2022/05/29 05:16:00;;;;;;;12.73;6.38;;;;;;;18.61;100.00;94125.88;5060738;28;20296;-73
2022/05/29 05:18:31;;;;;;;15.43;6.55;;;;;;;18.62;100.00;94128.19;5059442;28;20307;-73
2022/05/29 05:21:09;;;;;;;18.08;6.18;;;;;;;18.65;100.00;94125.00;5058993;28;20233;-73
2022/05/29 05:23:40;;;;;;;12.85;6.15;;;;;;;18.70;100.00;94124.94;5059730;28;20795;-73
2022/05/29 05:26:21;;;;;;;17.90;6.60;;;;;;;18.78;100.00;94125.41;5063113;28;20324;-73
2022/05/29 05:28:55;;;;;;;14.43;6.07;;;;;;;18.80;100.00;94126.69;5062996;28;20220;-73
2022/05/29 05:31:26;;;;;;;21.60;6.30;;;;;;;18.75;100.00;94123.34;5058486;28;20264;-73
2022/05/29 05:34:00;;;;;;;11.45;5.68;;;;;;;18.81;100.00;94123.00;5059530;28;20672;-74
2022/05/29 05:36:34;;;;;;;14.15;5.78;;;;;;;18.70;100.00;94130.22;5058991;28;20232;-74
2022/05/29 05:39:06;;;;;;;11.60;5.63;;;;;;;18.73;100.00;94130.75;5059569;28;20217;-73
2022/05/29 05:41:45;;;;;;;11.45;5.50;;;;;;;18.84;100.00;94124.28;5059809;28;20296;-73
2022/05/29 05:44:13;;;;;;;16.75;5.47;;;;;;;18.89;100.00;94129.47;5060477;28;20294;-74
2022/05/29 05:46:48;;;;;;;15.48;5.47;;;;;;;18.87;100.00;94124.50;5059697;28;20409;-75
2022/05/29 05:49:19;;;;;;;15.75;5.68;;;;;;;18.90;100.00;94129.22;5061865;28;20205;-74
2022/05/29 05:51:51;;;;;;;19.02;5.03;;;;;;;18.85;100.00;94134.53;5060607;28;20221;-74
2022/05/29 05:54:23;;;;;;;13.35;5.57;;;;;;;18.75;100.00;94134.66;5061960;28;20209;-75
2022/05/29 05:56:54;;;;;;;14.38;4.97;;;;;;;18.74;100.00;94104.13;5059473;28;20202;-74
2022/05/29 05:59:23;;;;;;;16.08;5.40;;;;;;;18.89;100.00;94111.03;5059241;28;20674;-74
2022/05/29 06:01:58;;;;;;;13.95;5.43;;;;;;;18.94;100.00;94116.25;5060615;28;20197;-74
2022/05/29 06:04:31;;;;;;;19.65;6.60;;;;;;;18.91;100.00;94124.72;5059436;28;20217;-77
2022/05/29 06:07:02;;;;;;;9.80;5.00;;;;;;;18.79;100.00;94126.97;5059065;28;20213;-74
2022/05/29 06:09:39;;;;;;;10.82;5.30;;;;;;;18.74;100.00;94124.38;5058003;28;20202;-73
2022/05/29 06:12:19;;;;;;;15.70;5.68;;;;;;;18.80;100.00;94128.53;5059489;28;20256;-73
2022/05/29 06:14:56;;;;;;;12.73;5.07;;;;;;;18.87;100.00;94126.34;5060930;28;20319;-74
2022/05/29 06:17:31;;;;;;;17.95;5.97;;;;;;;18.95;100.00;94113.34;5060951;28;20209;-73
2022/05/29 06:20:02;;;;;;;11.75;5.32;;;;;;;19.02;100.00;94105.06;5062670;28;20212;-74
2022/05/29 06:22:41;;;;;;;11.85;5.53;;;;;;;19.11;100.00;94101.53;5057766;28;20201;-73
2022/05/29 06:25:10;;;;;;;12.80;5.85;;;;;;;19.13;100.00;94106.53;5059047;28;20208;-77
2022/05/29 06:27:47;;;;;;;14.90;5.40;;;;;;;19.22;100.00;94107.44;5057735;28;20237;-73
2022/05/29 06:30:21;;;;;;;15.52;5.30;;;;;;;19.27;100.00;94097.63;5058128;28;20692;-73
2022/05/29 06:32:56;;;;;;;14.57;5.47;;;;;;;19.35;100.00;94077.75;5059090;28;20220;-73
2022/05/29 06:35:29;;;;;;;16.45;5.40;;;;;;;19.36;100.00;94081.16;5058595;28;21478;-77
2022/05/29 06:38:04;;;;;;;13.32;5.28;;;;;;;19.36;100.00;94071.41;5058389;28;20684;-74
2022/05/29 06:40:39;;;;;;;12.00;4.95;;;;;;;19.37;100.00;94069.53;5057910;28;20208;-80
2022/05/29 06:43:17;;;;;;;21.13;4.95;;;;;;;19.46;100.00;94070.50;5062096;28;20233;-80
2022/05/29 06:45:51;;;;;;;17.70;5.55;;;;;;;19.45;100.00;94068.94;5063497;28;20216;-81
2022/05/29 06:48:25;;;;;;;11.85;4.90;;;;;;;19.52;100.00;94085.16;5063585;28;20747;-82
2022/05/29 06:50:55;;;;;;;16.10;4.45;;;;;;;19.49;100.00;94073.34;5063749;28;20212;-81
2022/05/29 06:53:25;;;;;;;16.80;4.80;;;;;;;19.65;100.00;94079.94;5057918;28;20221;-79
2022/05/29 06:55:59;;;;;;;14.07;4.72;;;;;;;19.74;100.00;94075.56;5059726;28;20205;-81
2022/05/29 06:58:33;;;;;;;13.52;5.05;;;;;;;19.83;100.00;94073.06;5058504;28;20560;-78
2022/05/29 07:07:03;;;;;;;13.65;5.05;;;;;;;19.95;100.00;94075.22;5000083;28;20235;-79
2022/05/29 07:09:39;;;;;;;12.30;4.25;;;;;;;20.03;100.00;94075.34;5048415;28;20210;-80
2022/05/29 07:12:15;;;;;;;15.82;4.25;;;;;;;20.11;100.00;94066.78;5060380;28;20205;-79
2022/05/29 07:14:54;;;;;;;15.27;4.40;;;;;;;20.18;100.00;94063.75;5060938;28;20197;-79
2022/05/29 07:17:24;;;;;;;11.15;4.45;;;;;;;20.25;100.00;94061.53;5058291;28;20278;-79
2022/05/29 07:19:59;;;;;;;13.68;4.32;;;;;;;20.21;100.00;94049.97;5062173;28;20663;-80
2022/05/29 07:22:32;;;;;;;10.90;4.10;;;;;;;20.34;100.00;94060.59;5058262;28;20213;-80
2022/05/29 07:25:07;;;;;;;12.88;4.15;;;;;;;20.34;100.00;94046.59;5061568;28;20217;-79
2022/05/29 07:27:40;;;;;;;14.85;4.25;;;;;;;20.45;100.00;94061.16;5058452;28;20202;-80
2022/05/29 07:30:15;;;;;;;12.45;3.85;;;;;;;20.56;100.00;94074.94;5059167;28;20212;-80
2022/05/29 07:32:47;;;;;;;11.63;3.80;;;;;;;20.66;100.00;94074.75;5058156;28;20228;-80
2022/05/29 07:35:19;;;;;;;9.95;3.80;;;;;;;20.75;100.00;94067.72;5059642;28;20201;-80
2022/05/29 07:37:55;;;;;;;10.13;4.05;;;;;;;20.85;100.00;94072.78;5061915;28;20216;-80
2022/05/29 07:40:25;;;;;;;13.15;4.15;;;;;;;20.93;100.00;94064.16;5060215;28;20204;-82
2022/05/29 07:45:45;;;;;;;15.02;4.20;;;;;;;21.11;100.00;94073.06;5054402;28;20204;-82
2022/05/29 07:48:19;;;;;;;10.85;3.97;;;;;;;21.24;100.00;94061.69;5056488;28;20215;-82
2022/05/29 07:50:51;;;;;;;9.25;3.67;;;;;;;21.29;98.48;94062.34;5056313;28;20210;-88
2022/05/29 07:53:21;;;;;;;13.75;3.97;;;;;;;21.43;98.49;94070.22;5055836;28;20221;-76
2022/05/29 07:55:57;;;;;;;8.93;3.60;;;;;;;21.54;98.86;94070.75;5055146;28;20267;-76
2022/05/29 07:58:28;;;;;;;10.98;3.78;;;;;;;21.66;97.41;94068.38;5053855;28;20209;-76
2022/05/29 08:01:01;;;;;;;9.25;4.00;;;;;;;21.76;97.30;94070.78;5049987;28;20583;-75
2022/05/29 08:03:35;;;;;;;10.73;3.80;;;;;;;21.89;97.37;94059.34;5057629;28;20221;-76
2022/05/29 08:06:07;;;;;;;16.50;3.75;;;;;;;21.91;95.90;94059.84;5054863;28;20197;-77
2022/05/29 08:08:47;;;;;;;10.65;3.63;;;;;;;22.01;94.42;94064.88;5053718;28;20208;-76
2022/05/29 08:11:20;;;;;;;9.32;3.45;;;;;;;22.08;95.75;94057.28;5055477;28;20745;-87
2022/05/29 08:13:54;;;;;;;13.43;3.92;;;;;;;22.07;95.85;94039.06;5058432;28;20233;-87
2022/05/29 08:16:29;;;;;;;13.07;3.65;;;;;;;22.16;94.89;94045.19;5058933;28;20201;-85
2022/05/29 08:19:03;;;;;;;10.02;3.72;;;;;;;22.23;96.60;94042.88;5055382;28;20367;-83
2022/05/29 08:21:37;;;;;;;12.68;4.15;;;;;;;22.23;96.57;94035.72;5054585;28;20673;-87
2022/05/29 08:32:34;;;;;;;9.95;3.60;;;;;;;22.67;92.99;94042.75;5051620;28;20753;-77
2022/05/29 08:35:10;;;;;;;15.80;3.88;;;;;;;22.77;91.25;94044.34;5054593;28;20196;-80
2022/05/29 08:37:39;;;;;;;11.35;3.63;;;;;;;22.86;91.37;94035.31;5054210;28;20319;-77
2022/05/29 08:40:10;;;;;;;17.23;3.65;;;;;;;23.09;93.32;94034.09;5052442;28;20710;-80
2022/05/29 08:42:42;;;;;;;14.18;3.97;;;;;;;23.37;92.00;94031.16;5054885;28;20220;-77
2022/05/29 08:45:12;;;;;;;13.80;3.30;;;;;;;23.62;93.79;94030.38;5057085;28;20327;-77
2022/05/29 08:47:45;;;;;;;10.07;3.28;;;;;;;23.87;88.45;94037.50;5058053;28;20735;-77
2022/05/29 08:50:24;;;;;;;16.33;4.28;;;;;;;23.94;88.06;94021.88;5059929;28;20260;-76
2022/05/29 08:53:03;;;;;;;8.05;3.50;;;;;;;24.01;86.83;94032.78;5058970;28;20209;-77
2022/05/29 08:55:37;;;;;;;13.88;3.60;;;;;;;24.11;87.06;94021.06;5055701;28;20193;-77
2022/05/29 08:58:20;;;;;;;10.20;3.63;;;;;;;24.22;87.15;94025.72;5056706;28;20193;-75
2022/05/29 09:00:58;;;;;;;15.27;3.63;;;;;;;24.38;82.99;94030.50;5058661;28;20277;-79
2022/05/29 09:03:45;;;;;;;8.55;3.50;;;;;;;24.40;80.96;94015.81;5056739;28;20284;-78
2022/05/29 09:06:16;;;;;;;10.48;3.88;;;;;;;24.56;82.19;94005.44;5062004;28;20201;-78
2022/05/29 09:08:48;;;;;;;14.93;3.40;;;;;;;24.79;79.97;93996.81;5059885;28;20738;-78
2022/05/29 09:11:25;;;;;;;14.63;3.80;;;;;;;24.98;77.33;93995.66;5059428;28;20231;-76
2022/05/29 09:14:00;;;;;;;15.43;3.53;;;;;;;24.89;74.87;93989.59;5058097;28;20522;-77
2022/05/29 09:16:37;;;;;;;17.33;3.85;;;;;;;24.90;75.46;93978.66;5059286;28;20225;-77
2022/05/29 09:19:19;;;;;;;14.70;3.63;;;;;;;24.89;75.24;93978.97;5059570;28;20634;-77
2022/05/29 09:21:54;;;;;;;15.65;3.83;;;;;;;24.92;74.27;93975.66;5059866;28;20290;-77
2022/05/29 09:24:56;;;;;;;15.00;3.70;;;;;;;25.01;73.96;93974.50;5061123;28;20284;-76
2022/05/29 09:27:29;;;;;;;9.57;3.13;;;;;;;25.01;74.37;93963.09;5057834;28;20216;-76
2022/05/29 09:30:06;;;;;;;14.93;3.85;;;;;;;25.04;72.58;93967.75;5058838;28;20198;-76
2022/05/29 09:32:38;;;;;;;12.95;3.85;;;;;;;25.15;74.40;93960.94;5061414;28;20212;-76
2022/05/29 09:35:20;;;;;;;12.05;4.07;;;;;;;25.14;74.03;93954.84;5058975;28;20350;-77
2022/05/29 09:38:01;;;;;;;15.70;4.05;;;;;;;25.23;72.58;93960.88;5059757;28;20186;-77
2022/05/29 09:40:33;;;;;;;16.65;4.10;;;;;;;25.38;73.14;93960.25;5059163;28;20193;-78
2022/05/29 09:43:23;;;;;;;14.13;3.72;;;;;;;25.48;73.73;93955.69;5055307;28;20248;-78
2022/05/29 09:45:53;;;;;;;14.65;4.25;;;;;;;25.48;73.05;93964.44;5053591;28;20198;-78
2022/05/29 09:51:24;;;;;;;16.90;3.72;;;;;;;25.72;72.23;93966.38;5058221;28;20254;-78
2022/05/29 09:53:58;;;;;;;14.07;4.32;;;;;;;25.76;71.84;93946.78;5055692;28;20296;-77
2022/05/29 09:56:33;;;;;;;17.35;4.80;;;;;;;25.92;72.29;93946.88;5050730;28;20208;-78
2022/05/29 09:59:15;;;;;;;14.88;3.78;;;;;;;26.03;72.11;93931.28;5056673;28;20862;-78
2022/05/29 10:01:49;;;;;;;16.70;4.03;;;;;;;26.18;72.03;93933.28;5047731;28;20193;-75
2022/05/29 10:04:26;;;;;;;16.20;4.63;;;;;;;26.25;72.00;93931.63;5054808;28;20644;-77
2022/05/29 10:07:03;;;;;;;17.63;4.72;;;;;;;26.34;72.49;93934.19;5056283;28;20323;-77
2022/05/29 10:09:33;;;;;;;22.15;4.88;;;;;;;26.39;71.18;93928.63;5053465;28;20573;-76
2022/05/29 10:12:20;;;;;;;17.67;4.75;;;;;;;26.40;70.66;93930.19;5051907;28;20205;-75
2022/05/29 10:14:52;;;;;;;17.88;4.50;;;;;;;26.50;70.04;93930.50;5052173;28;20271;-76
2022/05/29 10:17:40;;;;;;;14.23;4.13;;;;;;;26.55;70.29;93923.41;5053851;28;20205;-77
2022/05/29 10:20:35;;;;;;;17.85;4.30;;;;;;;26.73;70.20;93920.13;5051836;28;20955;-78
2022/05/29 10:23:12;;;;;;;11.05;4.13;;;;;;;26.78;68.41;93921.81;5050429;28;20193;-75
2022/05/29 10:25:56;;;;;;;11.30;4.07;;;;;;;26.90;68.49;93916.44;5054004;28;20193;-79
2022/05/29 10:28:37;;;;;;;16.05;4.28;;;;;;;26.76;66.77;93922.13;5055435;28;20201;-76
2022/05/29 10:31:12;;;;;;;19.13;4.55;;;;;;;26.47;67.48;93915.19;5050037;28;20193;-79
2022/05/29 10:34:06;;;;;;;15.40;4.10;;;;;;;26.51;70.58;93909.97;5050280;28;20209;-79
2022/05/29 10:36:45;;;;;;;21.05;4.93;;;;;;;26.50;69.91;93908.41;5053455;28;20253;-79
2022/05/29 10:39:25;;;;;;;13.90;4.30;;;;;;;26.32;70.87;93902.53;5060303;28;20201;-78
2022/05/29 10:41:58;;;;;;;12.70;5.15;;;;;;;26.24;69.59;93914.09;5057997;28;20205;-79
2022/05/29 10:44:47;;;;;;;15.55;3.92;;;;;;;25.93;69.11;93927.16;5058902;28;20240;-80
2022/05/29 10:47:38;;;;;;;18.30;4.20;;;;;;;25.71;71.31;93915.03;5059363;28;20643;-81
2022/05/29 10:50:19;;;;;;;12.48;4.05;;;;;;;25.54;72.56;93912.53;5059933;28;20649;-78
2022/05/29 10:53:04;;;;;;;13.65;4.50;;;;;;;25.49;72.21;93907.44;5061657;28;20711;-79
2022/05/29 10:55:53;;;;;;;12.35;4.43;;;;;;;25.28;73.85;93898.72;5056387;28;20648;-79
2022/05/29 10:58:56;;;;;;;11.60;4.47;;;;;;;25.03;75.00;93873.09;5057337;28;20220;-79
2022/05/29 11:05:11;;;;;;;14.90;3.92;;;;;;;25.11;76.62;93881.00;5056019;28;20200;-78
2022/05/29 11:08:10;;;;;;;19.27;4.68;;;;;;;25.08;77.03;93873.69;5055879;28;20316;-78
2022/05/29 11:11:17;;;;;;;12.25;4.20;;;;;;;25.10;75.38;93868.03;5057637;28;20209;-77
2022/05/29 11:14:24;;;;;;;16.60;5.32;;;;;;;25.42;75.32;93865.34;5056490;28;20228;-78
2022/05/29 11:17:07;;;;;;;25.40;5.05;;;;;;;25.74;74.95;93871.00;5056089;28;20258;-78
2022/05/29 11:20:03;;;;;;;21.45;5.07;;;;;;;26.22;74.12;93864.91;5059557;28;20197;-78
2022/05/29 11:22:47;;;;;;;17.10;4.50;;;;;;;26.74;73.69;93851.56;5059395;28;20229;-78
2022/05/29 11:25:35;;;;;;;13.25;4.97;;;;;;;27.00;70.09;93850.06;5059904;28;20220;-78
2022/05/29 11:28:43;;;;;;;9.77;4.20;;;;;;;27.32;70.15;93834.13;5059218;28;20203;-78
2022/05/29 11:31:25;;;;;;;14.15;4.55;;;;;;;27.56;70.40;93831.34;5059720;28;20303;-78
2022/05/29 11:34:17;;;;;;;17.58;4.78;;;;;;;27.72;69.19;93821.41;5060369;28;20715;-77
2022/05/29 11:37:02;;;;;;;21.42;4.97;;;;;;;28.13;69.02;93814.75;5060126;28;20201;-78
2022/05/29 11:39:39;;;;;;;12.30;4.60;;;;;;;28.26;67.35;93808.16;5058030;28;20204;-78
2022/05/29 11:42:16;;;;;;;16.38;4.45;;;;;;;28.43;65.69;93801.63;5059009;28;20205;-78
2022/05/29 11:45:04;;;;;;;13.27;4.25;;;;;;;28.59;66.67;93789.78;5058529;28;20337;-77
2022/05/29 11:53:33;;;;;;;19.35;4.80;;;;;;;29.03;65.46;93774.19;5059130;28;20270;-78
2022/05/29 11:56:06;;;;;;;19.02;4.97;;;;;;;29.35;63.69;93780.13;5058295;28;20229;-78
2022/05/29 11:58:45;;;;;;;17.50;5.78;;;;;;;29.37;63.82;93766.41;5056528;28;20245;-78
2022/05/29 12:01:25;;;;;;;12.32;5.15;;;;;;;29.39;62.95;93766.81;5057553;28;20201;-78
2022/05/29 12:04:05;;;;;;;18.67;4.97;;;;;;;29.43;63.20;93773.00;5057358;28;20205;-78
2022/05/29 12:06:44;;;;;;;14.15;4.97;;;;;;;29.54;63.13;93774.72;5057209;28;20197;-78
2022/05/29 12:09:23;;;;;;;17.00;5.22;;;;;;;29.27;64.45;93759.72;5058523;28;20283;-78
2022/05/29 12:12:05;;;;;;;15.82;4.93;;;;;;;29.41;62.82;93756.53;5060412;28;20305;-78
2022/05/29 12:14:44;;;;;;;12.60;4.75;;;;;;;29.38;64.01;93760.66;5057246;28;20289;-78
2022/05/29 12:17:23;;;;;;;11.73;5.75;;;;;;;29.27;63.34;93751.69;5061641;28;20258;-78
2022/05/29 12:19:56;;;;;;;16.80;5.80;;;;;;;29.42;63.70;93737.41;5061223;28;20201;-78
2022/05/29 12:22:33;;;;;;;15.40;5.80;;;;;;;29.65;62.97;93750.78;5057501;28;20283;-78
2022/05/29 12:25:11;;;;;;;9.18;4.85;;;;;;;29.73;64.65;93742.47;5055633;28;20216;-77
2022/05/29 12:27:43;;;;;;;14.43;5.38;;;;;;;29.64;63.45;93730.50;5053832;28;20213;-77
2022/05/29 12:30:27;;;;;;;14.80;6.15;;;;;;;29.77;63.96;93739.84;5058250;28;20209;-78
2022/05/29 12:33:04;;;;;;;14.98;5.90;;;;;;;29.88;63.91;93735.44;5055376;28;20255;-78
2022/05/29 12:35:42;;;;;;;15.70;6.47;;;;;;;30.12;63.38;93736.94;5057976;28;20205;-78
2022/05/29 12:38:31;;;;;;;16.10;6.10;;;;;;;30.00;63.08;93729.09;5058436;28;20303;-78
2022/05/29 12:41:25;;;;;;;16.35;6.38;;;;;;;30.15;62.55;93720.91;5059485;28;20212;-78
2022/05/29 12:44:34;;;;;;;21.25;7.18;;;;;;;29.87;62.52;93720.50;5062720;28;20391;-78
2022/05/29 12:47:35;;;;;;;16.15;6.65;;;;;;;29.93;63.33;93705.66;5054647;28;20890;-78
2022/05/29 12:50:34;;;;;;;12.40;6.68;;;;;;;29.95;63.00;93718.69;5061791;28;20429;-78